• Join FlightAware (Why Join?)
  • Login
  • US Flag 
01:13AM EDT


 

Airport Tracker/Info


-or-


 

Live Flight TrackerFlight Track Log ✈ UAL1494 ✈ 26-Sep-2013 ✈ KBOS - KIAH

Flight Track Log - Related Links

Times and Time Zones

All times are in EDT time to prevent confusion due to time zone crossing. See the UAL1494 flight status page for this flight to view local times or setup timezone preferences in your user account.

Time Position Orientation Groundspeed Altitude Reporting Facility
EDT Latitude Longitude Course Direction KTS MPH feet Rate Location/Type
01:05PM 42.3667 -70.9667 270° West 177 204 1,200  Level KA90
01:06PM 42.3814 -70.8744 78° East 238 274 4,100 2,640 Climbing Boston Center
01:07PM 42.3906 -70.7900 82° East 238 274 7,100 2,400 Climbing Boston Center
01:08PM 42.2000 -71.3274 270° West  Level FlightAware Approximate
01:08PM 42.3394 -70.7267 138° Southeast 213 245 8,900  Level Boston Center
01:09PM 42.2000 -71.4888 270° West  Level FlightAware Approximate
01:09PM 42.2586 -70.7569 195° South 219 252 10,700  Level Boston Center
01:10PM 42.2000 -71.6502 270° West  Level FlightAware Approximate
01:10PM 42.2453 -70.8444 258° West 207 238 12,000  Level Boston Center
01:11PM 42.2392 -71.0100 267° West 330 380 15,100 2,820 Climbing Boston Center
01:12PM 42.2328 -71.1669 267° West 373 429 17,600 2,220 Climbing Boston Center
01:13PM 42.2303 -71.3186 269° West 397 457 19,600 1,980 Climbing Boston Center
01:14PM 42.2253 -71.4672 267° West 403 464 21,600 1,740 Climbing Boston Center
01:15PM 42.2139 -71.6047 264° West 408 470 23,100 1,560 Climbing Boston Center
01:16PM 42.2067 -71.7647 267° West 408 470 24,800 1,560 Climbing Boston Center
01:17PM 42.2011 -71.9244 267° West 423 487 26,300 1,380 Climbing Boston Center
01:18PM 42.1914 -72.0869 265° West 434 499 27,600 1,200 Climbing Boston Center
01:19PM 42.1856 -72.2553 267° West 441 507 28,800 660 Climbing Boston Center
01:20PM 42.1253 -72.4064 242° Southwest 446 513 29,000 300 Climbing Boston Center
01:21PM 42.0544 -72.5492 236° Southwest 445 512 29,400 1,200 Climbing Boston Center
01:22PM 41.9811 -72.6997 237° Southwest 453 521 31,500 1,380 Climbing Boston Center
01:23PM 41.9078 -72.8389 235° Southwest 453 521 32,300 780 Climbing Boston Center
01:24PM 41.8344 -72.9806 235° Southwest 458 527 33,100 960 Climbing Boston Center
01:25PM 41.7586 -73.1247 235° Southwest 470 541 34,200 1,020 Climbing Boston Center
01:26PM 41.6867 -73.2628 235° Southwest 470 541 35,200 660 Climbing Boston Center
01:27PM 41.5706 -73.4581 232° Southwest 460 529 35,900 300 Climbing New York Center
01:28PM 41.4861 -73.5878 229° Southwest 460 529 36,000  Climbing New York Center
01:29PM 41.4019 -73.7169 229° Southwest 465 535 36,000  Level New York Center
01:30PM 41.3175 -73.8403 228° Southwest 465 535 36,000  Level New York Center
01:31PM 41.2328 -73.9686 229° Southwest 465 535 36,000  Level New York Center
01:32PM 41.1439 -74.0967 227° Southwest 465 535 36,000  Level New York Center
01:33PM 41.0614 -74.2192 228° Southwest 460 529 36,000 -60 Level New York Center
01:34PM 40.9844 -74.3525 233° Southwest 455 524 35,900 -60 Descending New York Center
01:35PM 40.9014 -74.4800 229° Southwest 460 529 35,900  Level New York Center
01:36PM 40.8222 -74.6100 231° Southwest 460 529 36,000  Climbing New York Center
01:37PM 40.7408 -74.7397 230° Southwest 460 529 35,900 -60 Descending New York Center
01:38PM 40.6614 -74.8636 230° Southwest 455 524 35,900  Level New York Center
01:39PM 40.5839 -74.9931 232° Southwest 455 524 36,000  Climbing New York Center
01:40PM 40.5000 -75.1242 230° Southwest 455 524 36,000  Level New York Center
01:41PM 40.4289 -75.2425 232° Southwest 462 532 36,000  Level New York Center
01:42PM 40.3381 -75.3836 230° Southwest 462 532 36,000 -60 Level New York Center
01:43PM 40.2769 -75.5047 237° Southwest 462 532 35,900  Descending New York Center
01:44PM 40.2067 -75.6439 237° Southwest 462 532 36,000  Climbing New York Center
01:45PM 40.1264 -75.7714 231° Southwest 457 526 36,000  Level New York Center
01:46PM 40.0539 -75.9072 235° Southwest 462 532 36,000  Level New York Center
01:47PM 40.0197 -76.0647 254° West 449 517 36,000  Level New York Center
01:48PM 39.9386 -76.1992 232° Southwest 457 526 36,000  Level New York Center
01:49PM 39.8492 -76.3250 227° Southwest 466 536 36,000  Level New York Center
01:50PM 39.7661 -76.4533 230° Southwest 466 536 36,000  Level New York Center
01:51PM 39.6806 -76.5814 229° Southwest 476 548 36,000  Level New York Center
01:53PM 39.5728 -76.7358 228° Southwest 462 532 36,000  Level Washington Center
01:54PM 39.4861 -76.8633 229° Southwest 462 532 36,000  Level Washington Center
01:55PM 39.3992 -76.9881 228° Southwest 462 532 36,000  Level Washington Center
01:56PM 39.3144 -77.1153 229° Southwest 468 539 36,000  Level Washington Center
01:57PM 39.2272 -77.2419 228° Southwest 468 539 36,000  Level Washington Center
01:58PM 39.1400 -77.3658 228° Southwest 468 539 36,000  Level Washington Center
01:59PM 39.0528 -77.4919 228° Southwest 468 539 36,000  Level Washington Center
02:00PM 38.9672 -77.6181 229° Southwest 468 539 36,000  Level Washington Center
02:01PM 38.8731 -77.7542 228° Southwest 474 545 36,000  Level Washington Center
02:02PM 38.7811 -77.8792 227° Southwest 481 554 36,000  Level Washington Center
02:03PM 38.6975 -77.9989 228° Southwest 476 548 36,000  Level Washington Center
02:04PM 38.6117 -78.1236 229° Southwest 471 542 36,000  Level Washington Center
02:05PM 38.5233 -78.2456 227° Southwest 471 542 36,000  Level Washington Center
02:06PM 38.4353 -78.3669 227° Southwest 471 542 36,000  Level Washington Center
02:07PM 38.3469 -78.4906 228° Southwest 476 548 36,000  Level Washington Center
02:08PM 38.2667 -78.6119 230° Southwest 471 542 36,000  Level Washington Center
02:09PM 38.1847 -78.7222 227° Southwest 471 542 36,000  Level Washington Center
02:10PM 38.0958 -78.8478 228° Southwest 476 548 36,000  Level Washington Center
02:11PM 38.0092 -78.9653 227° Southwest 481 554 36,000  Level Washington Center
02:12PM 37.9200 -79.0850 227° Southwest 476 548 36,000  Level Washington Center
02:13PM 37.8447 -79.2314 237° Southwest 464 534 36,000  Level Washington Center
02:14PM 37.7761 -79.3672 237° Southwest 464 534 36,000  Level Washington Center
02:15PM 37.7050 -79.5028 236° Southwest 464 534 36,000  Level Washington Center
02:16PM 37.6444 -79.6231 238° Southwest 464 534 36,000  Level Washington Center
02:17PM 37.5686 -79.7736 238° Southwest 464 534 36,000  Level Washington Center
02:18PM 37.4989 -79.9164 238° Southwest 469 540 36,000  Level Washington Center
02:19PM 37.4269 -80.0536 237° Southwest 477 549 36,000  Level Washington Center
02:20PM 37.3181 -80.2631 237° Southwest 455 524 36,000  Level Atlanta Center
02:21PM 37.2411 -80.4125 237° Southwest 455 524 36,000  Level Atlanta Center
02:22PM 37.1722 -80.5486 238° Southwest 460 529 36,000  Level Atlanta Center
02:23PM 37.1031 -80.6817 237° Southwest 465 535 36,000  Level Atlanta Center
02:24PM 37.0442 -80.8247 243° Southwest 470 541 36,000  Level Atlanta Center
02:25PM 36.9953 -80.9489 244° Southwest 465 535 36,000  Level Atlanta Center
02:26PM 36.9256 -81.0839 237° Southwest 460 529 36,000  Level Atlanta Center
02:27PM 36.8581 -81.2189 238° Southwest 465 535 36,000  Level Atlanta Center
02:28PM 36.7881 -81.3508 237° Southwest 465 535 36,000  Level Atlanta Center
02:29PM 36.7181 -81.4956 239° Southwest 454 522 36,000  Level Atlanta Center
02:30PM 36.6478 -81.6247 236° Southwest 459 528 36,000  Level Atlanta Center
02:31PM 36.5792 -81.7561 237° Southwest 464 534 36,000  Level Atlanta Center
02:32PM 36.5086 -81.8872 236° Southwest 464 534 36,000  Level Atlanta Center
02:33PM 36.4419 -82.0156 237° Southwest 457 526 36,000  Level Atlanta Center
02:34PM 36.3711 -82.1436 236° Southwest 457 526 36,000  Level Atlanta Center
02:35PM 36.3042 -82.2739 238° Southwest 452 520 36,000  Level Atlanta Center
02:36PM 36.2350 -82.4017 236° Southwest 452 520 36,000  Level Atlanta Center
02:37PM 36.1678 -82.5289 237° Southwest 452 520 36,000  Level Atlanta Center
02:38PM 36.0964 -82.6589 236° Southwest 452 520 36,000  Level Atlanta Center
02:39PM 36.0289 -82.7883 237° Southwest 452 520 36,000  Level Atlanta Center
02:40PM 35.9572 -82.9178 236° Southwest 452 520 36,000  Level Atlanta Center
02:41PM 35.8875 -83.0467 236° Southwest 458 527 36,000  Level Atlanta Center
02:42PM 35.8175 -83.1758 236° Southwest 458 527 36,000  Level Atlanta Center
02:43PM 35.7494 -83.2992 236° Southwest 458 527 36,000  Level Atlanta Center
02:44PM 35.6814 -83.4303 237° Southwest 458 527 36,000  Level Atlanta Center
02:45PM 35.6089 -83.5586 235° Southwest 458 527 36,000  Level Atlanta Center
02:46PM 35.5364 -83.6839 235° Southwest 458 527 36,000  Level Atlanta Center
02:47PM 35.4678 -83.8092 236° Southwest 458 527 36,000  Level Atlanta Center
02:48PM 35.3989 -83.9369 237° Southwest 458 527 36,000  Level Atlanta Center
02:49PM 35.3261 -84.0642 235° Southwest 458 527 36,000  Level Atlanta Center
02:50PM 35.2633 -84.1761 236° Southwest 458 527 36,000  Level Atlanta Center
02:51PM 35.1922 -84.3031 236° Southwest 453 521 36,000  Level Atlanta Center
02:52PM 35.1189 -84.4297 235° Southwest 453 521 36,000  Level Atlanta Center
02:53PM 35.0475 -84.5564 235° Southwest 453 521 36,000  Level Atlanta Center
02:54PM 34.9758 -84.6853 236° Southwest 459 528 36,000  Level Atlanta Center
02:55PM 34.9042 -84.8111 235° Southwest 459 528 36,000  Level Atlanta Center
02:56PM 34.8325 -84.9344 235° Southwest 459 528 36,000  Level Atlanta Center
02:57PM 34.7606 -85.0603 235° Southwest 459 528 36,000  Level Atlanta Center
02:58PM 34.6864 -85.1856 234° Southwest 459 528 36,000  Level Atlanta Center
02:59PM 34.6164 -85.3058 235° Southwest 459 528 36,000  Level Atlanta Center
03:00PM 34.5461 -85.4283 235° Southwest 454 522 36,000  Level Atlanta Center
03:01PM 34.4736 -85.5506 234° Southwest 454 522 36,000  Level Atlanta Center
03:02PM 34.4033 -85.6728 235° Southwest 449 517 36,000  Level Atlanta Center
03:03PM 34.3264 -85.8094 236° Southwest 442 509 36,000  Level Atlanta Center
03:04PM 34.2581 -85.9136 232° Southwest 442 509 36,000  Level Atlanta Center
03:05PM 34.1872 -86.0378 235° Southwest 447 514 36,000  Level Atlanta Center
03:06PM 34.1142 -86.1589 234° Southwest 447 514 36,000  Level Atlanta Center
03:07PM 34.0411 -86.2800 234° Southwest 447 514 36,000  Level Atlanta Center
03:08PM 33.9700 -86.3983 234° Southwest 447 514 36,000  Level Atlanta Center
03:09PM 33.8986 -86.5189 235° Southwest 447 514 36,000  Level Atlanta Center
03:10PM 33.8253 -86.6369 233° Southwest 447 514 36,000  Level Atlanta Center
03:11PM 33.7539 -86.7572 235° Southwest 447 514 36,000  Level Atlanta Center
03:12PM 33.6822 -86.8747 234° Southwest 447 514 36,000  Level Atlanta Center
03:13PM 33.6250 -87.0025 242° Southwest 442 509 36,000  Level Atlanta Center
03:14PM 33.5739 -87.1331 245° Southwest 437 503 36,000  Level Atlanta Center
03:17PM 33.4458 -87.4569 245° Southwest 449 517 36,000  Level Memphis Center
03:18PM 33.3903 -87.5881 243° Southwest 449 517 36,000  Level Memphis Center
03:19PM 33.3369 -87.7217 244° Southwest 449 517 36,000  Level Memphis Center
03:20PM 33.2853 -87.8497 244° Southwest 449 517 36,000  Level Memphis Center
03:21PM 33.2294 -87.9806 243° Southwest 444 511 36,000  Level Memphis Center
03:22PM 33.1778 -88.1136 245° Southwest 444 511 36,000  Level Memphis Center
03:23PM 33.1317 -88.2289 244° Southwest 444 511 36,000  Level Memphis Center
03:24PM 33.0794 -88.3589 244° Southwest 439 505 36,000  Level Memphis Center
03:25PM 33.0233 -88.4939 244° Southwest 444 511 36,000  Level Memphis Center
03:26PM 32.9689 -88.6264 244° Southwest 449 517 36,000  Level Memphis Center
03:27PM 32.9142 -88.7561 243° Southwest 449 517 36,000  Level Memphis Center
03:28PM 32.8572 -88.8883 243° Southwest 449 517 36,000  Level Memphis Center
03:29PM 32.8025 -89.0178 243° Southwest 444 511 36,000  Level Memphis Center
03:30PM 32.7475 -89.1469 243° Southwest 444 511 36,000  Level Memphis Center
03:31PM 32.6922 -89.2761 243° Southwest 444 511 36,000  Level Memphis Center
03:32PM 32.6369 -89.4025 243° Southwest 438 504 36,000  Level Memphis Center
03:33PM 32.5836 -89.5314 244° Southwest 438 504 36,000  Level Memphis Center
03:34PM 32.5258 -89.6625 242° Southwest 438 504 36,000  Level Memphis Center
03:35PM 32.4703 -89.7911 243° Southwest 438 504 36,000  Level Memphis Center
03:36PM 32.4144 -89.9192 243° Southwest 438 504 36,000  Level Memphis Center
03:37PM 32.3583 -90.0500 243° Southwest 438 504 36,000  Level Memphis Center
03:38PM 32.3003 -90.1778 242° Southwest 438 504 36,000  Level Memphis Center
03:39PM 32.2461 -90.3083 244° Southwest 443 510 36,000  Level Memphis Center
03:40PM 32.1522 -90.5239 243° Southwest 443 510 36,000  Level Houston Center
03:41PM 32.0850 -90.6781 243° Southwest 442 509 36,000  Level Houston Center
03:42PM 32.0344 -90.7928 243° Southwest 441 507 36,000  Level Houston Center
03:43PM 31.9664 -90.9461 242° Southwest 441 507 36,000  Level Houston Center
03:44PM 31.9089 -91.0739 242° Southwest 441 507 36,000  Level Houston Center
03:46PM 31.8497 -91.2022 242° Southwest 445 512 36,000  Level Houston Center
03:47PM 31.7936 -91.3306 243° Southwest 442 509 36,000  Level Houston Center
03:48PM 31.7358 -91.4586 242° Southwest 443 510 36,000  Level Houston Center
03:49PM 31.6664 -91.6122 242° Southwest 444 511 36,000  Level Houston Center
03:50PM 31.6078 -91.7397 242° Southwest 445 512 36,000  Level Houston Center
03:51PM 31.5494 -91.8667 242° Southwest 443 510 36,000  Level Houston Center
03:52PM 31.4908 -91.9956 242° Southwest 446 513 36,000 -60 Level Houston Center
03:53PM 31.4239 -92.1344 241° Southwest 441 507 35,900  Descending Houston Center
03:54PM 31.3656 -92.2625 242° Southwest 446 513 36,000  Climbing Houston Center
03:55PM 31.3064 -92.3900 242° Southwest 441 507 36,000  Level Houston Center
03:56PM 31.2464 -92.5169 241° Southwest 448 516 36,000 -60 Level Houston Center
03:57PM 31.1786 -92.6392 237° Southwest 460 529 35,900  Descending Houston Center
03:58PM 31.1119 -92.7603 237° Southwest 449 517 36,000 -60 Climbing Houston Center
03:59PM 31.0300 -92.9058 237° Southwest 448 516 35,800 -540 Descending Houston Center
04:00PM 30.9611 -93.0275 237° Southwest 451 519 34,900 -960 Descending Houston Center
04:01PM 30.8908 -93.1528 237° Southwest 460 529 33,900 -900 Descending Houston Center
04:02PM 30.8211 -93.2756 237° Southwest 459 528 33,100 -960 Descending Houston Center
04:03PM 30.7503 -93.4006 237° Southwest 464 534 32,000 -2,040 Descending Houston Center
04:04PM 30.6658 -93.5514 237° Southwest 467 537 28,900 -2,760 Descending Houston Center
04:05PM 30.5969 -93.6714 236° Southwest 458 527 26,300 -2,640 Descending Houston Center
04:06PM 30.5275 -93.7942 237° Southwest 438 504 23,700 -2,460 Descending Houston Center
04:06PM 30.5300 -93.7892 60° Northeast 445 512 23,800 -2,100 Climbing Houston Center
04:07PM 30.4658 -93.9011 236° Southwest 426 490 21,400 -2,580 Descending Houston Center
04:07PM 30.4492 -93.9311 237° Southwest 415 478 20,800 -2,760 Descending Houston Center
04:08PM 30.3908 -94.0292 235° Southwest 403 464 18,600 -2,400 Descending Houston Center
04:08PM 30.3847 -94.0419 241° Southwest 399 459 18,400 -2,100 Descending Houston Center
04:09PM 30.3314 -94.1331 236° Southwest 390 449 16,400 -2,280 Descending Houston Center
04:09PM 30.3219 -94.1497 237° Southwest 385 443 16,100 -2,040 Descending Houston Center
04:10PM 30.2725 -94.2339 236° Southwest 381 438 14,300 -2,160 Descending Houston Center
04:10PM 30.2664 -94.2467 241° Southwest 373 429 13,900 -2,220 Descending Houston Center
04:11PM 30.2125 -94.3383 236° Southwest 362 417 12,100 -1,800 Descending Houston Center
04:11PM 30.2161 -94.3308 61° Northeast 370 426 12,200 -1,260 Climbing Houston Center
04:12PM 30.1853 -94.4319 251° West 348 400 10,800 -1,800 Descending Houston Center
04:12PM 30.1822 -94.4561 262° West 324 373 10,300 -720 Descending Houston Center
04:13PM 30.1672 -94.5475 259° West 326 375 10,100 -240 Descending Houston Center
04:14PM 30.1650 -94.5600 258° West 327 376 10,100 -120 Level Houston Center
04:14PM 30.1575 -94.6553 265° West 328 377 10,000 -120 Descending Houston Center
04:15PM 30.1583 -94.6531 67° East 328 377 10,000 -1,260 Level Houston Center
04:16PM 30.1492 -94.7650 265° West 299 344 8,600 -1,260 Descending Houston Center
04:16PM 30.1406 -94.8508 263° West 293 337 7,600 -1,020 Descending Houston Center
04:17PM 30.1436 -94.8444 61° Northeast 300 345 7,600 -1,320 Level Houston Center
04:17PM 30.1342 -94.9408 264° West 275 316 6,300 -1,380 Descending Houston Center
04:18PM 30.1344 -94.9492 272° West 279 321 6,200 -240 Descending Houston Center
04:19PM 30.1275 -95.0264 264° West 267 307 6,100 -120 Descending Houston Center
04:19PM 30.1278 -95.0328 273° West 267 307 6,100  Level Houston Center
04:20PM 30.1208 -95.1117 264° West 265 305 6,100  Level Houston Center
04:20PM 30.1208 -95.1175 270° West 266 306 6,100  Level Houston Center
04:21PM 30.1122 -95.1997 263° West 265 305 6,100  Level Houston Center
04:21PM 30.1133 -95.2025 295° West 267 307 6,100  Level Houston Center
04:22PM 30.1064 -95.2947 265° West 270 311 6,100  Level Houston Center
04:22PM 30.1067 -95.2861 88° East 265 305 6,100 -420 Level Houston Center
04:23PM 30.1064 -95.3864 270° West 272 313 5,700 -540 Descending Houston Center
04:23PM 30.1069 -95.3906 279° West 271 312 5,600 -1,500 Descending Houston Center
04:24PM 30.1078 -95.4708 271° West 266 306 4,200 -1,500 Descending Houston Center
04:24PM 30.1075 -95.4756 266° West 268 308 4,100 -1,020 Descending Houston Center
04:25PM 30.0889 -95.5406 252° West 219 252 3,200 -1,020 Descending Houston Center
04:25PM 30.0850 -95.5403 176° South 243 280 3,100 -240 Descending Houston Center
04:26PM 30.0372 -95.5275 167° South 204 235 3,000 -300 Descending Houston Center
04:26PM 30.0317 -95.5228 144° Southeast 218 251 2,800 -900 Descending Houston Center
04:27PM 30.0072 -95.4731 120° Southeast 184 212 2,100 -900 Descending Houston Center
04:27PM 30.0075 -95.4708 82° East 203 234 1,900 -900 Descending Houston Center
04:28PM 30.0064 -95.4203 91° East 157 181 1,200 -900 Descending Houston Center
04:28PM 30.0092 -95.4167 48° Northeast 181 208 1,000 -900 Descending Houston Center
04:29PM 30.0061 -95.3694 94° East 152 175 300 -540 Descending Houston Center
04:29PM 30.0081 -95.3622 73° East 169 194 500 780 Climbing Houston Center